createdAt,value
2023-02-27T00:00:44.855Z,77.51
2023-02-27T00:16:01.298Z,77.52
2023-02-27T00:31:05.184Z,77.54
2023-02-27T00:46:09.507Z,77.81
2023-02-27T01:01:12.736Z,78.33
2023-02-27T01:16:16.045Z,77.82
2023-02-27T01:31:19.293Z,77.83
2023-02-27T01:46:23.761Z,77.86
2023-02-27T02:01:28.518Z,78.08
2023-02-27T02:16:35.152Z,77.98
2023-02-27T02:31:47.703Z,78.01
2023-02-27T02:47:26.257Z,78.01
2023-02-27T03:02:35.992Z,77.77
2023-02-27T03:18:07.714Z,77.92
2023-02-27T03:33:22.242Z,78.05
2023-02-27T03:48:26.433Z,78.19
2023-02-27T04:03:37.825Z,78.15
2023-02-27T04:19:00.308Z,77.94
2023-02-27T04:34:15.702Z,77.95
2023-02-27T04:49:29.880Z,77.76
2023-02-27T05:04:37.460Z,77.79
2023-02-27T05:19:43.069Z,77.86
2023-02-27T05:34:52.210Z,77.73
2023-02-27T05:50:02.805Z,77.64
2023-02-27T06:05:07.025Z,77.60
2023-02-27T06:20:11.150Z,77.57
2023-02-27T06:35:14.396Z,77.18
2023-02-27T06:50:17.629Z,77.50
2023-02-27T07:05:20.756Z,77.67
2023-02-27T07:20:23.993Z,76.75
2023-02-27T07:35:28.393Z,74.72
2023-02-27T07:50:32.183Z,74.62
2023-02-27T08:05:36.167Z,73.41
2023-02-27T08:20:39.417Z,71.01
2023-02-27T08:35:43.235Z,69.70
2023-02-27T08:50:47.097Z,69.31
2023-02-27T09:05:50.448Z,65.53
2023-02-27T09:20:53.595Z,61.84
2023-02-27T09:35:57.041Z,61.96
2023-02-27T09:51:01.217Z,59.17
2023-02-27T10:06:10.533Z,56.96
2023-02-27T10:21:19.970Z,56.31
2023-02-27T10:36:33.632Z,51.38
2023-02-27T10:51:38.509Z,51.52
2023-02-27T11:06:42.895Z,49.75
2023-02-27T11:22:05.242Z,48.69
2023-02-27T11:37:33.064Z,48.95
2023-02-27T11:52:42.309Z,49.86
2023-02-27T12:07:54.398Z,49.98
2023-02-27T12:22:57.891Z,48.95
2023-02-27T12:38:02.825Z,49.04
2023-02-27T12:53:42.932Z,48.53
2023-02-27T13:08:51.840Z,47.87
2023-02-27T13:24:24.074Z,45.91
2023-02-27T13:39:39.063Z,45.13
2023-02-27T13:54:42.669Z,44.35
2023-02-27T14:09:49.346Z,39.56
2023-02-27T14:25:05.551Z,38.14
2023-02-27T14:40:36.948Z,36.33
2023-02-27T14:55:40.431Z,37.28
2023-02-27T15:10:45.010Z,36.33
2023-02-27T15:25:48.566Z,37.65
2023-02-27T15:40:52.776Z,40.58
2023-02-27T15:55:59.579Z,39.89
2023-02-27T16:11:05.058Z,40.94
2023-02-27T16:26:33.434Z,43.43
2023-02-27T16:41:38.016Z,45.42
2023-02-27T16:56:46.731Z,47.35
2023-02-27T17:11:53.031Z,48.57
2023-02-27T17:26:57.838Z,49.97
2023-02-27T17:42:01.766Z,51.10
2023-02-27T17:57:07.136Z,52.10
2023-02-27T18:12:11.975Z,53.04
2023-02-27T18:27:16.589Z,53.94
2023-02-27T18:42:20.543Z,54.55
2023-02-27T18:57:24.267Z,54.92
2023-02-27T19:12:28.047Z,55.45
2023-02-27T19:27:32.257Z,56.07
2023-02-27T19:42:36.377Z,56.77
2023-02-27T19:57:40.277Z,57.25
2023-02-27T20:12:44.530Z,58.23
2023-02-27T20:27:47.910Z,58.65
2023-02-27T20:42:51.438Z,59.68
2023-02-27T20:57:54.868Z,60.47
2023-02-27T21:12:58.462Z,60.34
2023-02-27T21:28:02.465Z,60.20
2023-02-27T21:43:05.907Z,60.78
2023-02-27T21:58:10.702Z,61.18
2023-02-27T22:13:15.657Z,61.34
2023-02-27T22:28:19.092Z,61.66
2023-02-27T22:43:23.120Z,62.14
2023-02-27T22:58:26.329Z,62.68
2023-02-27T23:13:29.583Z,62.68
2023-02-27T23:28:34.675Z,63.23
2023-02-27T23:43:37.816Z,64.51
2023-02-27T23:58:41.330Z,64.72
